Aviation Digital Data Service (ADDS)

Output produced by METARs form (2100 UTC 23 August 2016)
found at http://aviationweather.gov/adds/metars/
 
KRDU 231720Z 2318/2418 06005KT P6SM SCT060 SCT250